createdAt,value
2022-08-26T05:50:49.997Z,19.00
2022-08-26T05:55:44.926Z,19.10
2022-08-26T06:00:39.149Z,19.40
2022-08-26T06:05:39.849Z,19.70
2022-08-26T06:10:35.085Z,19.90
2022-08-26T06:15:28.811Z,20.20
2022-08-26T06:20:22.252Z,20.30
2022-08-26T06:46:12.187Z,21.30
2022-08-26T06:51:09.251Z,21.30
2022-08-26T06:56:05.962Z,21.50
2022-08-26T07:01:03.080Z,21.80
2022-08-26T07:06:05.397Z,21.90
2022-08-26T07:11:05.132Z,22.10
2022-08-26T07:16:03.023Z,22.30
2022-08-26T07:20:56.813Z,22.40
2022-08-26T07:25:51.754Z,22.60
2022-08-26T07:30:45.302Z,22.80
2022-08-26T07:35:40.020Z,22.90
2022-08-26T07:40:34.200Z,23.10
2022-08-26T07:45:29.809Z,23.40
2022-08-26T07:50:49.001Z,23.50
2022-08-26T07:55:37.592Z,23.70
2022-08-26T08:00:33.957Z,23.90
2022-08-26T08:05:33.451Z,24.10
2022-08-26T08:10:28.942Z,24.20
2022-08-26T08:15:27.980Z,24.40
2022-08-26T08:26:08.262Z,24.70
2022-08-26T08:31:02.289Z,25.00
2022-08-26T08:35:58.594Z,25.10
2022-08-26T08:40:52.346Z,25.30
2022-08-26T08:45:50.781Z,25.50
2022-08-26T08:50:47.502Z,25.70
2022-08-26T08:56:05.710Z,25.90
2022-08-26T09:01:03.206Z,26.10
2022-08-26T09:06:00.385Z,26.30
2022-08-26T09:10:59.358Z,26.40
2022-08-26T09:16:06.934Z,26.70
2022-08-26T09:21:03.453Z,26.80
2022-08-26T09:25:58.926Z,27.10
2022-08-26T09:31:09.220Z,27.40
2022-08-26T09:36:24.913Z,27.80
2022-08-26T09:41:25.949Z,28.10
2022-08-26T09:46:30.491Z,28.50
2022-08-26T09:51:30.231Z,28.80
2022-08-26T09:56:29.066Z,29.00
2022-08-26T10:01:32.312Z,29.40
2022-08-26T10:06:28.676Z,29.80
2022-08-26T10:11:30.953Z,30.10
2022-08-26T10:16:29.673Z,30.30
2022-08-26T10:21:29.450Z,30.20
2022-08-26T10:26:29.362Z,30.60
2022-08-26T10:31:40.227Z,30.90
2022-08-26T10:37:13.895Z,31.10
2022-08-26T10:42:10.937Z,31.30
2022-08-26T10:47:16.295Z,31.80
2022-08-26T10:52:19.201Z,32.30
2022-08-26T10:57:19.585Z,32.40
2022-08-26T11:02:21.537Z,32.40
2022-08-26T11:07:39.455Z,32.80
2022-08-26T11:12:52.162Z,32.90
2022-08-26T11:18:00.120Z,33.20
2022-08-26T11:22:59.565Z,33.70
2022-08-26T11:27:59.175Z,33.50
2022-08-26T11:32:55.035Z,33.80
2022-08-26T11:37:52.200Z,33.90
2022-08-26T11:42:51.794Z,34.20
2022-08-26T11:47:46.738Z,33.80
2022-08-26T11:52:51.664Z,33.70
2022-08-26T11:57:48.967Z,33.60
2022-08-26T12:02:44.492Z,34.00
2022-08-26T12:07:38.892Z,34.00
2022-08-26T12:12:39.010Z,34.20
2022-08-26T12:17:34.023Z,34.40
2022-08-26T12:22:29.658Z,34.20
2022-08-26T12:27:25.476Z,33.60
2022-08-26T12:32:19.927Z,33.80
2022-08-26T12:37:16.447Z,34.40
2022-08-26T12:42:25.704Z,35.10
2022-08-26T12:47:42.276Z,35.00
2022-08-26T12:52:44.414Z,34.30
2022-08-26T12:57:39.980Z,34.20
2022-08-26T13:02:37.541Z,34.20
2022-08-26T13:07:31.759Z,34.00
2022-08-26T13:12:29.581Z,33.30
2022-08-26T13:17:23.403Z,32.80
2022-08-26T13:22:22.535Z,33.60
2022-08-26T13:27:18.002Z,34.10
2022-08-26T13:32:13.066Z,34.20
2022-08-26T13:37:07.115Z,34.00
2022-08-26T13:42:00.662Z,33.90
2022-08-26T13:46:54.125Z,34.80
2022-08-26T13:51:49.053Z,34.20
2022-08-26T13:56:42.586Z,33.20
2022-08-26T14:01:39.751Z,32.60
2022-08-26T14:06:33.231Z,31.90
2022-08-26T14:11:30.335Z,31.50
2022-08-26T14:16:59.544Z,31.20
2022-08-26T14:21:54.073Z,31.50
2022-08-26T14:26:49.681Z,31.70
2022-08-26T14:31:43.630Z,31.50
2022-08-26T14:36:38.158Z,31.60
2022-08-26T14:41:33.401Z,32.40
2022-08-26T14:46:29.677Z,33.50
2022-08-26T14:51:24.078Z,34.30
2022-08-26T14:56:18.038Z,34.10
2022-08-26T15:01:13.038Z,33.70
2022-08-26T15:06:09.090Z,33.30
2022-08-26T15:11:02.606Z,33.10
2022-08-26T15:15:56.123Z,32.70
2022-08-26T15:20:49.676Z,32.40
2022-08-26T15:25:46.050Z,33.20
2022-08-26T15:30:39.799Z,34.00
2022-08-26T15:35:38.380Z,34.50
2022-08-26T15:40:34.039Z,34.90
2022-08-26T15:45:29.269Z,35.10
2022-08-26T15:50:22.833Z,35.50
2022-08-26T15:55:16.457Z,36.60
2022-08-26T16:00:11.193Z,37.70
2022-08-26T16:05:11.094Z,39.20
2022-08-26T16:10:04.728Z,40.20
2022-08-26T16:14:58.641Z,39.30
2022-08-26T16:19:52.329Z,35.50
2022-08-26T16:24:47.323Z,33.10
2022-08-26T16:29:41.206Z,31.90
2022-08-26T16:34:35.211Z,31.00
2022-08-26T16:39:28.766Z,30.60
2022-08-26T16:44:23.694Z,30.10
2022-08-26T16:49:21.634Z,29.70
2022-08-26T16:54:15.089Z,29.40
2022-08-26T16:59:11.618Z,29.00
2022-08-26T17:04:07.301Z,28.80
2022-08-26T17:09:00.954Z,28.50
2022-08-26T17:13:54.856Z,28.30
2022-08-26T17:18:48.667Z,28.10
2022-08-26T17:23:45.112Z,27.80
2022-08-26T17:28:39.339Z,27.70
2022-08-26T17:33:33.322Z,27.40
2022-08-26T17:38:29.008Z,27.10
2022-08-26T17:43:24.353Z,26.90
2022-08-26T17:48:18.456Z,26.70
2022-08-26T17:53:18.445Z,26.50
2022-08-26T17:58:14.605Z,26.30
2022-08-26T18:03:09.940Z,26.20
2022-08-26T18:08:03.718Z,26.00
2022-08-26T18:12:58.431Z,25.90
2022-08-26T18:17:52.085Z,25.70
2022-08-26T18:22:48.500Z,25.40
2022-08-26T18:27:42.266Z,25.30
2022-08-26T18:32:35.798Z,25.30
2022-08-26T18:37:31.580Z,25.20
2022-08-26T18:42:26.861Z,25.00
2022-08-26T18:47:20.421Z,24.80
2022-08-26T18:52:14.687Z,24.70
2022-08-26T18:57:08.441Z,24.50
2022-08-26T19:02:03.598Z,24.20
2022-08-26T19:06:57.493Z,24.00
2022-08-26T19:11:50.971Z,23.90
2022-08-26T19:16:48.552Z,23.90
2022-08-26T19:21:44.364Z,23.80
2022-08-26T19:26:39.104Z,23.80
2022-08-26T19:31:33.631Z,23.70
2022-08-26T19:36:29.026Z,23.60
2022-08-26T19:41:34.158Z,23.50
2022-08-26T19:46:31.914Z,23.30
2022-08-26T19:51:27.747Z,23.30
2022-08-26T19:56:22.051Z,23.10
2022-08-26T20:01:17.971Z,22.90
2022-08-26T20:06:13.418Z,22.70
2022-08-26T20:11:11.351Z,22.70
